createdAt,value
2022-07-31T00:00:16.786Z,21.30
2022-07-31T00:02:44.515Z,21.31
2022-07-31T00:05:11.646Z,21.26
2022-07-31T00:07:38.108Z,21.23
2022-07-31T00:10:05.722Z,21.11
2022-07-31T00:12:34.728Z,21.11
2022-07-31T00:15:06.349Z,20.99
2022-07-31T00:17:33.623Z,21.00
2022-07-31T00:20:00.081Z,20.98
2022-07-31T00:22:26.513Z,21.09
2022-07-31T00:24:52.920Z,21.08
2022-07-31T00:27:19.303Z,21.09
2022-07-31T00:29:45.675Z,21.06
2022-07-31T00:32:12.106Z,21.08
2022-07-31T00:34:38.501Z,21.02
2022-07-31T00:37:05.387Z,21.07
2022-07-31T00:39:32.616Z,21.06
2022-07-31T00:41:59.190Z,21.00
2022-07-31T00:44:25.950Z,21.07
2022-07-31T00:46:52.622Z,20.95
2022-07-31T00:49:19.669Z,20.97
2022-07-31T00:51:46.750Z,20.86
2022-07-31T00:54:16.957Z,20.80
2022-07-31T00:56:50.292Z,20.80
2022-07-31T00:59:16.886Z,20.84
2022-07-31T01:01:50.891Z,20.81
2022-07-31T01:04:18.968Z,20.72
2022-07-31T01:06:46.694Z,20.65
2022-07-31T01:09:16.737Z,20.64
2022-07-31T01:12:13.075Z,20.67
2022-07-31T01:14:45.827Z,20.69
2022-07-31T01:17:13.782Z,20.64
2022-07-31T01:19:43.609Z,20.67
2022-07-31T01:22:47.118Z,20.63
2022-07-31T01:25:39.447Z,20.59
2022-07-31T01:28:36.931Z,20.59
2022-07-31T01:31:29.124Z,20.54
2022-07-31T01:34:03.974Z,20.58
2022-07-31T01:36:34.953Z,20.69
2022-07-31T01:39:02.499Z,20.64
2022-07-31T01:41:36.046Z,20.67
2022-07-31T01:44:04.570Z,20.66
2022-07-31T01:46:37.442Z,20.67
2022-07-31T01:49:09.741Z,20.67
2022-07-31T01:51:39.061Z,20.70
2022-07-31T01:54:05.875Z,20.59
2022-07-31T01:56:34.553Z,20.55
2022-07-31T01:59:02.371Z,20.54
2022-07-31T02:01:30.163Z,20.54
2022-07-31T02:04:00.374Z,20.46
2022-07-31T02:06:28.294Z,20.49
2022-07-31T02:08:56.288Z,20.51
2022-07-31T02:11:23.704Z,20.50
2022-07-31T02:13:52.124Z,20.56
2022-07-31T02:16:20.425Z,20.55
2022-07-31T02:18:50.718Z,20.42
2022-07-31T02:21:17.307Z,20.51
2022-07-31T02:23:43.857Z,20.39
2022-07-31T02:26:10.621Z,20.47
2022-07-31T02:28:41.961Z,20.57
2022-07-31T02:31:12.822Z,20.57
2022-07-31T02:33:42.562Z,20.57
2022-07-31T02:36:11.561Z,20.57
2022-07-31T02:38:39.578Z,20.51
2022-07-31T02:41:07.317Z,20.50
2022-07-31T02:43:35.595Z,20.49
2022-07-31T02:46:03.733Z,20.49
2022-07-31T02:48:31.289Z,20.48
2022-07-31T02:50:58.118Z,20.38
2022-07-31T02:53:24.922Z,20.21
2022-07-31T02:55:51.770Z,20.24
2022-07-31T02:58:18.288Z,20.27
2022-07-31T03:00:45.797Z,20.33
2022-07-31T03:03:12.310Z,20.31
2022-07-31T03:05:38.857Z,20.24
2022-07-31T03:08:05.536Z,20.25
2022-07-31T03:10:32.987Z,20.25
2022-07-31T03:13:00.693Z,20.26
2022-07-31T03:15:28.894Z,20.23
2022-07-31T03:17:55.683Z,20.14
2022-07-31T03:20:23.415Z,20.17
2022-07-31T03:22:50.711Z,20.13
2022-07-31T03:25:21.359Z,20.10
2022-07-31T03:27:55.053Z,20.09
2022-07-31T03:30:27.086Z,20.25
2022-07-31T03:32:54.835Z,20.11
2022-07-31T03:35:21.502Z,20.16
2022-07-31T03:37:48.260Z,20.10
2022-07-31T03:40:14.795Z,20.16
2022-07-31T03:42:42.365Z,20.12
2022-07-31T03:45:11.247Z,20.10
2022-07-31T03:47:37.986Z,20.07
2022-07-31T03:50:05.637Z,20.09
2022-07-31T03:52:32.273Z,20.12
2022-07-31T03:54:59.198Z,20.07
2022-07-31T03:57:31.099Z,20.08
2022-07-31T04:00:00.323Z,20.10
2022-07-31T04:02:28.373Z,20.08
2022-07-31T04:04:55.165Z,20.02
2022-07-31T04:07:21.577Z,19.83
2022-07-31T04:09:48.161Z,19.96
2022-07-31T04:12:14.634Z,20.02
2022-07-31T04:14:41.202Z,19.94
2022-07-31T04:17:07.957Z,20.02
2022-07-31T04:19:35.046Z,20.03
2022-07-31T04:22:03.399Z,19.94
2022-07-31T04:24:30.106Z,19.95
2022-07-31T04:26:57.357Z,20.01
2022-07-31T04:29:24.609Z,20.00
2022-07-31T04:31:51.171Z,20.09
2022-07-31T04:34:17.768Z,19.96
2022-07-31T04:36:44.164Z,20.02
2022-07-31T04:39:10.591Z,20.11
2022-07-31T04:41:37.051Z,20.08
2022-07-31T04:44:03.513Z,20.02
2022-07-31T04:46:29.924Z,20.03
2022-07-31T04:48:56.416Z,20.12
2022-07-31T04:51:24.265Z,20.05
2022-07-31T04:53:51.288Z,19.86
2022-07-31T04:56:35.972Z,19.91
2022-07-31T04:59:05.515Z,20.07
2022-07-31T05:01:32.372Z,20.10
2022-07-31T05:03:58.917Z,19.96
2022-07-31T05:06:39.018Z,20.09
2022-07-31T05:09:10.031Z,20.09
2022-07-31T05:11:38.010Z,20.06
2022-07-31T05:14:06.483Z,20.16
2022-07-31T05:16:34.031Z,20.13
2022-07-31T05:19:00.908Z,20.12
2022-07-31T05:21:27.589Z,20.12
2022-07-31T05:23:55.442Z,20.13
2022-07-31T05:26:22.142Z,19.77
2022-07-31T05:28:49.556Z,19.86
2022-07-31T05:31:17.526Z,19.93
2022-07-31T05:33:44.872Z,19.90
2022-07-31T05:36:11.416Z,19.69
2022-07-31T05:38:38.016Z,19.80
2022-07-31T05:41:04.560Z,19.87
2022-07-31T05:43:30.947Z,19.88
2022-07-31T05:45:57.476Z,19.95
2022-07-31T05:48:23.904Z,19.78
2022-07-31T05:50:51.646Z,19.65
2022-07-31T05:53:18.822Z,19.76
2022-07-31T05:55:46.743Z,19.73
2022-07-31T05:58:16.790Z,19.70
2022-07-31T06:00:45.508Z,19.80
2022-07-31T06:03:12.633Z,20.00
2022-07-31T06:05:42.767Z,19.73
2022-07-31T06:08:09.813Z,19.50
2022-07-31T06:10:37.404Z,19.45
2022-07-31T06:13:05.154Z,19.52
2022-07-31T06:15:36.074Z,19.76
2022-07-31T06:18:03.725Z,19.45
2022-07-31T06:20:30.293Z,19.62
2022-07-31T06:22:56.678Z,19.50
2022-07-31T06:25:23.252Z,19.40
2022-07-31T06:27:52.017Z,19.47
2022-07-31T06:30:25.671Z,19.53
2022-07-31T06:32:52.137Z,19.62
2022-07-31T06:35:18.584Z,19.66
2022-07-31T06:37:45.043Z,19.81
2022-07-31T06:40:12.275Z,19.78
2022-07-31T06:42:38.753Z,19.71
2022-07-31T06:45:05.635Z,19.78
2022-07-31T06:47:32.166Z,19.86
2022-07-31T06:49:58.570Z,19.76
2022-07-31T06:52:25.113Z,19.63
2022-07-31T06:54:51.877Z,19.76
2022-07-31T06:57:18.448Z,19.82
2022-07-31T06:59:44.904Z,19.75
2022-07-31T07:02:11.355Z,19.71
2022-07-31T07:05:05.401Z,19.73
2022-07-31T07:07:24.242Z,19.61
2022-07-31T07:09:58.076Z,19.87
2022-07-31T07:12:24.545Z,20.04
2022-07-31T07:14:53.309Z,20.14
2022-07-31T07:17:19.719Z,20.05
2022-07-31T07:19:46.140Z,20.12
2022-07-31T07:22:31.299Z,20.14
2022-07-31T07:24:59.022Z,19.96
2022-07-31T07:27:25.770Z,20.10
2022-07-31T07:29:52.159Z,20.33
2022-07-31T07:32:18.559Z,20.33
2022-07-31T07:34:44.959Z,20.36
2022-07-31T07:37:12.310Z,19.88
2022-07-31T07:39:38.706Z,20.22
2022-07-31T07:42:05.443Z,20.01
2022-07-31T07:44:32.058Z,19.92
2022-07-31T07:46:58.490Z,19.95
2022-07-31T07:49:25.047Z,20.03
2022-07-31T07:51:59.528Z,19.98
2022-07-31T07:54:36.852Z,20.25
2022-07-31T07:57:03.361Z,20.44
2022-07-31T07:59:29.771Z,20.35
2022-07-31T08:01:56.382Z,20.60
2022-07-31T08:04:22.814Z,20.40
2022-07-31T08:06:49.238Z,20.44
2022-07-31T08:09:15.733Z,20.79
2022-07-31T08:11:42.209Z,20.96
2022-07-31T08:14:08.587Z,21.24
2022-07-31T08:16:35.061Z,21.34
2022-07-31T08:19:01.459Z,21.15
2022-07-31T08:21:27.908Z,21.03
2022-07-31T08:23:54.389Z,21.27
2022-07-31T08:26:20.866Z,21.22
2022-07-31T08:28:49.950Z,21.37
2022-07-31T08:31:18.630Z,21.07
2022-07-31T08:33:45.948Z,21.21
2022-07-31T08:36:12.585Z,21.25
2022-07-31T08:38:39.426Z,21.23
2022-07-31T08:41:06.127Z,21.50
2022-07-31T08:44:00.219Z,21.62
2022-07-31T08:46:20.313Z,21.70
2022-07-31T08:48:47.463Z,21.62
2022-07-31T08:51:15.579Z,21.65
2022-07-31T08:53:43.832Z,21.23
2022-07-31T08:56:11.251Z,21.21
2022-07-31T08:58:39.978Z,21.24
2022-07-31T09:01:13.933Z,21.32
2022-07-31T09:03:40.552Z,21.13
2022-07-31T09:06:06.978Z,21.07
2022-07-31T09:08:34.925Z,21.36
2022-07-31T09:11:13.258Z,21.38
2022-07-31T09:13:40.469Z,21.47
2022-07-31T09:16:08.307Z,21.49
2022-07-31T09:18:35.063Z,20.98
2022-07-31T09:21:06.928Z,20.96
2022-07-31T09:23:33.703Z,20.79
2022-07-31T09:26:07.545Z,20.67
2022-07-31T09:28:43.265Z,20.72
2022-07-31T09:31:11.324Z,20.68
2022-07-31T09:33:43.835Z,20.77
2022-07-31T09:36:13.850Z,20.70
2022-07-31T09:38:42.542Z,20.74
2022-07-31T09:41:56.853Z,20.74
2022-07-31T09:44:09.660Z,20.88
2022-07-31T09:46:46.865Z,20.88
2022-07-31T09:49:14.267Z,20.96
2022-07-31T09:51:47.725Z,20.84
2022-07-31T09:54:24.972Z,20.79
2022-07-31T09:56:51.513Z,20.98
2022-07-31T09:59:18.645Z,21.06
2022-07-31T10:01:49.222Z,21.13
2022-07-31T10:04:19.893Z,20.76
2022-07-31T10:06:51.703Z,20.78
2022-07-31T10:09:20.346Z,20.77
2022-07-31T10:11:48.537Z,20.82
2022-07-31T10:14:35.765Z,20.82
2022-07-31T10:17:04.790Z,20.79
2022-07-31T10:19:40.532Z,20.94
2022-07-31T10:22:09.642Z,21.32
2022-07-31T10:24:42.781Z,21.71
2022-07-31T10:27:09.780Z,21.87
2022-07-31T10:29:39.196Z,21.83
2022-07-31T10:32:06.734Z,21.67
2022-07-31T10:34:34.798Z,21.57
2022-07-31T10:37:24.726Z,21.60
2022-07-31T10:40:15.394Z,21.53
2022-07-31T10:42:45.970Z,21.53
2022-07-31T10:45:14.501Z,21.26
2022-07-31T10:47:48.696Z,21.10
2022-07-31T10:50:24.333Z,21.09
2022-07-31T10:52:51.546Z,21.22
2022-07-31T10:55:25.105Z,21.27
2022-07-31T10:57:55.269Z,21.57
2022-07-31T11:00:29.748Z,21.48
2022-07-31T11:02:56.970Z,21.61
2022-07-31T11:05:23.702Z,21.56
2022-07-31T11:08:07.847Z,21.49
2022-07-31T11:10:34.413Z,21.16
2022-07-31T11:13:10.929Z,21.08
2022-07-31T11:15:40.221Z,20.86
2022-07-31T11:18:24.911Z,20.92
2022-07-31T11:21:06.167Z,20.89
2022-07-31T11:23:57.779Z,21.36
2022-07-31T11:26:33.171Z,21.68
2022-07-31T11:29:58.898Z,21.79
2022-07-31T11:31:53.650Z,21.83
2022-07-31T11:34:20.085Z,21.82
2022-07-31T11:36:51.059Z,21.99
2022-07-31T11:39:18.075Z,22.24
2022-07-31T11:41:45.689Z,21.97
2022-07-31T11:44:12.243Z,22.08
2022-07-31T11:46:38.649Z,22.19
2022-07-31T11:49:05.253Z,22.25
2022-07-31T11:51:31.754Z,22.32
2022-07-31T11:53:59.129Z,22.16
2022-07-31T11:56:27.294Z,22.05
2022-07-31T11:58:55.902Z,22.10
2022-07-31T12:01:27.844Z,22.27
2022-07-31T12:03:56.061Z,22.28
2022-07-31T12:06:23.284Z,22.16
2022-07-31T12:08:52.320Z,22.35
2022-07-31T12:11:20.347Z,22.11
2022-07-31T12:13:48.159Z,22.05
2022-07-31T12:16:15.651Z,22.08
2022-07-31T12:18:54.896Z,22.11
2022-07-31T12:21:30.397Z,22.31
2022-07-31T12:23:58.181Z,23.05
2022-07-31T12:26:26.076Z,23.61
2022-07-31T12:29:11.076Z,23.67
2022-07-31T12:32:04.425Z,23.49
2022-07-31T12:34:39.196Z,23.16
2022-07-31T12:37:16.693Z,22.83
2022-07-31T12:39:53.885Z,22.78
2022-07-31T12:42:40.718Z,22.75
2022-07-31T12:45:19.384Z,22.93
2022-07-31T12:47:51.273Z,23.23
2022-07-31T12:50:22.622Z,23.16
2022-07-31T12:52:49.028Z,23.61
2022-07-31T12:55:17.309Z,23.63
2022-07-31T12:57:50.871Z,23.45
2022-07-31T13:00:22.437Z,23.66
2022-07-31T13:02:49.191Z,23.50
2022-07-31T13:05:15.771Z,23.72
2022-07-31T13:07:42.170Z,23.61
2022-07-31T13:10:19.803Z,23.38
2022-07-31T13:12:52.106Z,23.45
2022-07-31T13:15:22.647Z,23.43
2022-07-31T13:17:50.762Z,23.18
2022-07-31T13:20:18.035Z,23.17
2022-07-31T13:22:44.727Z,23.32
2022-07-31T13:25:11.226Z,23.12
2022-07-31T13:27:37.736Z,22.97
2022-07-31T13:30:05.385Z,23.12
2022-07-31T13:32:31.895Z,23.37
2022-07-31T13:35:19.462Z,23.44
2022-07-31T13:37:46.421Z,23.44
2022-07-31T13:40:13.614Z,23.41
2022-07-31T13:42:40.045Z,23.61
2022-07-31T13:45:08.611Z,23.41
2022-07-31T13:47:51.086Z,23.18
2022-07-31T13:50:18.590Z,22.94
2022-07-31T13:52:45.000Z,22.85
2022-07-31T13:55:11.465Z,23.08
2022-07-31T13:57:37.910Z,22.95
2022-07-31T14:00:04.917Z,22.94
2022-07-31T14:02:31.472Z,22.91
2022-07-31T14:04:58.059Z,22.78
2022-07-31T14:07:47.801Z,23.07
2022-07-31T14:10:13.271Z,23.32
2022-07-31T14:12:41.459Z,23.43
2022-07-31T14:15:08.394Z,23.57
2022-07-31T14:17:34.925Z,23.44
2022-07-31T14:20:01.851Z,23.31
2022-07-31T14:22:29.434Z,23.30
2022-07-31T14:24:55.840Z,23.38
2022-07-31T14:27:22.266Z,23.45
2022-07-31T14:29:48.880Z,23.63
2022-07-31T14:32:15.451Z,23.45
2022-07-31T14:34:41.875Z,23.15
2022-07-31T14:37:08.404Z,22.90
2022-07-31T14:39:34.842Z,22.86
2022-07-31T14:42:01.396Z,22.75
2022-07-31T14:44:29.470Z,22.56
2022-07-31T14:46:56.309Z,22.30
2022-07-31T14:49:23.098Z,22.04
2022-07-31T14:51:49.634Z,21.84
2022-07-31T14:54:16.307Z,21.95
2022-07-31T14:57:11.790Z,21.84
2022-07-31T14:59:30.049Z,21.91
2022-07-31T15:01:57.204Z,22.16
2022-07-31T15:04:24.036Z,22.26
2022-07-31T15:07:03.094Z,22.21
2022-07-31T15:09:37.722Z,22.39
2022-07-31T15:12:04.339Z,22.58
2022-07-31T15:14:31.029Z,22.84
2022-07-31T15:16:57.941Z,22.27
2022-07-31T15:19:24.439Z,22.20
2022-07-31T15:22:16.300Z,22.11
2022-07-31T15:24:40.120Z,22.09
2022-07-31T15:27:08.854Z,22.30
2022-07-31T15:30:04.614Z,22.09
2022-07-31T15:32:21.764Z,22.20
2022-07-31T15:34:48.167Z,22.16
2022-07-31T15:37:20.055Z,22.10
2022-07-31T15:40:02.112Z,21.97
2022-07-31T15:42:33.898Z,22.12
2022-07-31T15:45:00.685Z,22.34
2022-07-31T15:47:27.227Z,22.47
2022-07-31T15:49:53.761Z,22.04
2022-07-31T15:52:20.198Z,22.23
2022-07-31T15:54:47.232Z,22.16
2022-07-31T15:57:19.038Z,22.17
2022-07-31T15:59:45.459Z,22.03
2022-07-31T16:02:11.852Z,21.93
2022-07-31T16:04:46.433Z,21.78
2022-07-31T16:08:31.560Z,21.71
2022-07-31T16:10:16.607Z,21.66
2022-07-31T16:12:47.852Z,21.49
2022-07-31T16:15:16.424Z,21.42
2022-07-31T16:17:43.523Z,21.51
2022-07-31T16:20:25.452Z,21.45
2022-07-31T16:22:55.468Z,21.43
2022-07-31T16:25:23.424Z,21.37
2022-07-31T16:27:49.956Z,21.15
2022-07-31T16:30:16.515Z,21.26
2022-07-31T16:32:43.311Z,21.24
2022-07-31T16:35:11.310Z,21.02
2022-07-31T16:37:50.195Z,21.08
2022-07-31T16:40:31.032Z,21.04
2022-07-31T16:43:47.533Z,20.91
2022-07-31T16:45:54.303Z,20.88
2022-07-31T16:48:21.131Z,21.20
2022-07-31T16:50:48.483Z,21.06
2022-07-31T16:54:10.935Z,20.84
2022-07-31T16:56:07.153Z,21.04
2022-07-31T16:58:33.618Z,21.10
2022-07-31T17:01:02.858Z,21.09
2022-07-31T17:03:59.267Z,21.14
2022-07-31T17:06:16.000Z,21.18
2022-07-31T17:08:43.874Z,20.97
2022-07-31T17:11:10.327Z,21.07
2022-07-31T17:13:36.738Z,21.21
2022-07-31T17:16:03.375Z,21.08
2022-07-31T17:18:29.920Z,21.24
2022-07-31T17:20:56.898Z,21.20
2022-07-31T17:23:43.466Z,21.15
2022-07-31T17:26:21.283Z,21.00
2022-07-31T17:28:50.697Z,21.17
2022-07-31T17:31:18.683Z,21.15
2022-07-31T17:33:55.829Z,20.92
2022-07-31T17:36:26.549Z,20.95
2022-07-31T17:38:53.062Z,20.76
2022-07-31T17:41:24.983Z,20.86
2022-07-31T17:43:53.172Z,20.92
2022-07-31T17:46:21.950Z,21.03
2022-07-31T17:48:55.811Z,20.99
2022-07-31T17:51:22.446Z,21.06
2022-07-31T17:53:55.084Z,20.89
2022-07-31T17:56:26.477Z,20.97
2022-07-31T17:58:53.036Z,20.83
2022-07-31T18:01:19.528Z,20.75
2022-07-31T18:03:46.070Z,20.80
2022-07-31T18:06:12.594Z,20.67
2022-07-31T18:08:39.021Z,20.72
2022-07-31T18:11:06.524Z,20.87
2022-07-31T18:13:39.159Z,20.81
2022-07-31T18:16:15.716Z,20.88
2022-07-31T18:18:42.171Z,20.67
2022-07-31T18:21:08.825Z,20.62
2022-07-31T18:23:35.297Z,20.66
2022-07-31T18:26:03.313Z,20.65
2022-07-31T18:28:31.618Z,20.56
2022-07-31T18:31:01.724Z,20.61
2022-07-31T18:33:28.140Z,20.54
2022-07-31T18:35:54.580Z,20.52
2022-07-31T18:38:20.997Z,20.55
2022-07-31T18:40:47.579Z,20.53
2022-07-31T18:43:14.080Z,20.37
2022-07-31T18:45:41.708Z,20.38
2022-07-31T18:48:08.339Z,20.34
2022-07-31T18:51:02.345Z,20.42
2022-07-31T18:53:21.556Z,20.32
2022-07-31T18:55:48.060Z,20.42
2022-07-31T18:58:14.624Z,20.44
2022-07-31T19:00:41.157Z,20.36
2022-07-31T19:03:07.881Z,20.27
2022-07-31T19:05:35.088Z,20.27
2022-07-31T19:08:01.680Z,20.41
2022-07-31T19:10:29.376Z,20.39
2022-07-31T19:12:58.044Z,20.22
2022-07-31T19:15:24.443Z,20.29
2022-07-31T19:17:50.815Z,20.31
2022-07-31T19:20:56.722Z,20.20
2022-07-31T19:23:03.954Z,20.27
2022-07-31T19:25:59.578Z,20.13
2022-07-31T19:28:20.699Z,20.04
2022-07-31T19:30:53.710Z,20.27
2022-07-31T19:33:20.310Z,20.15
2022-07-31T19:35:55.406Z,20.24
2022-07-31T19:38:25.251Z,20.12
2022-07-31T19:40:51.832Z,20.15
2022-07-31T19:43:20.262Z,20.19
2022-07-31T19:45:58.804Z,20.24
2022-07-31T19:48:33.534Z,20.20
2022-07-31T19:50:59.962Z,20.10
2022-07-31T19:53:26.366Z,20.14
2022-07-31T19:55:52.785Z,20.11
2022-07-31T19:58:21.103Z,20.18
2022-07-31T20:00:47.589Z,20.11
2022-07-31T20:03:14.082Z,20.15
2022-07-31T20:05:41.008Z,20.10
2022-07-31T20:08:07.459Z,20.22
2022-07-31T20:10:33.951Z,20.02
2022-07-31T20:13:00.384Z,20.00
2022-07-31T20:15:26.947Z,20.16
2022-07-31T20:18:13.326Z,20.18
2022-07-31T20:21:03.240Z,20.20
2022-07-31T20:23:31.015Z,20.10
2022-07-31T20:25:57.509Z,20.02
2022-07-31T20:28:26.316Z,20.00
2022-07-31T20:30:52.924Z,20.00
2022-07-31T20:33:19.453Z,20.01
2022-07-31T20:35:49.259Z,20.10
2022-07-31T20:38:20.580Z,20.21
2022-07-31T20:40:54.328Z,19.97
2022-07-31T20:43:31.434Z,19.96
2022-07-31T20:45:58.978Z,20.04
2022-07-31T20:48:33.107Z,20.14
2022-07-31T20:51:01.415Z,20.12
2022-07-31T20:53:28.845Z,20.09
2022-07-31T20:55:55.423Z,20.01
2022-07-31T20:58:23.157Z,20.07
2022-07-31T21:00:50.999Z,20.06
2022-07-31T21:03:18.092Z,20.01
2022-07-31T21:05:45.383Z,19.98
2022-07-31T21:08:12.129Z,20.05
2022-07-31T21:10:38.805Z,20.04
2022-07-31T21:13:05.295Z,20.14
2022-07-31T21:15:41.729Z,20.14
2022-07-31T21:18:12.990Z,20.16
2022-07-31T21:20:50.951Z,20.13
2022-07-31T21:23:26.576Z,20.22
2022-07-31T21:25:55.657Z,20.14
2022-07-31T21:28:23.819Z,20.14
2022-07-31T21:30:50.776Z,20.17
2022-07-31T21:33:18.133Z,20.15
2022-07-31T21:35:45.412Z,20.07
2022-07-31T21:38:12.649Z,20.14
2022-07-31T21:40:40.210Z,20.15
2022-07-31T21:43:07.015Z,20.17
2022-07-31T21:45:50.569Z,20.12
2022-07-31T21:48:23.166Z,20.05
2022-07-31T21:50:49.983Z,20.20
2022-07-31T21:53:16.480Z,20.17
2022-07-31T21:55:43.004Z,20.07
2022-07-31T21:58:09.877Z,20.10
2022-07-31T22:00:36.970Z,20.13
2022-07-31T22:03:04.055Z,20.11
2022-07-31T22:05:49.847Z,20.15
2022-07-31T22:08:16.730Z,20.12
2022-07-31T22:10:43.729Z,20.08
2022-07-31T22:13:10.569Z,20.15
2022-07-31T22:15:58.358Z,20.16
2022-07-31T22:18:26.191Z,20.19
2022-07-31T22:20:53.428Z,20.05
2022-07-31T22:23:20.147Z,20.09
2022-07-31T22:25:48.883Z,20.15
2022-07-31T22:28:18.860Z,20.16
2022-07-31T22:30:45.685Z,20.16
2022-07-31T22:33:12.272Z,20.12
2022-07-31T22:35:40.571Z,20.17
2022-07-31T22:38:07.648Z,20.15
2022-07-31T22:40:34.255Z,20.18
2022-07-31T22:43:02.478Z,20.17
2022-07-31T22:45:29.848Z,20.08
2022-07-31T22:47:57.384Z,20.09
2022-07-31T22:50:24.030Z,19.91
2022-07-31T22:52:50.444Z,19.95
2022-07-31T22:55:16.976Z,19.92
2022-07-31T22:57:45.001Z,19.97
2022-07-31T23:00:14.067Z,20.01
2022-07-31T23:02:42.255Z,19.82
2022-07-31T23:05:09.915Z,19.96
2022-07-31T23:07:36.944Z,19.92
2022-07-31T23:10:05.265Z,19.90
2022-07-31T23:12:31.661Z,19.92
2022-07-31T23:14:58.157Z,19.93
2022-07-31T23:17:24.865Z,19.86
2022-07-31T23:19:54.219Z,19.78
2022-07-31T23:22:30.850Z,19.80
2022-07-31T23:25:08.702Z,19.71
2022-07-31T23:27:35.430Z,19.72
2022-07-31T23:30:02.346Z,19.67
2022-07-31T23:32:28.849Z,19.69
2022-07-31T23:34:55.326Z,19.63
2022-07-31T23:37:21.705Z,19.63
2022-07-31T23:39:48.105Z,19.61
2022-07-31T23:42:32.911Z,19.58
2022-07-31T23:44:59.416Z,19.61
2022-07-31T23:47:33.987Z,19.46
2022-07-31T23:50:12.279Z,19.52
2022-07-31T23:52:38.709Z,19.59
2022-07-31T23:55:05.504Z,19.61
2022-07-31T23:57:34.310Z,19.57
